sensor_id;sensor_type;location;lat;lon;timestamp;pressure;altitude;pressure_sealevel;temperature;humidity
53440;BME280;39333;47.044;15.080;2022-10-31T00:00:58;96777.75;;;10.76;70.14
53440;BME280;39333;47.044;15.080;2022-10-31T00:03:25;96779.09;;;10.56;71.82
53440;BME280;39333;47.044;15.080;2022-10-31T00:05:53;96779.69;;;10.58;71.63
53440;BME280;39333;47.044;15.080;2022-10-31T00:08:19;96770.59;;;10.54;71.32
53440;BME280;39333;47.044;15.080;2022-10-31T00:10:46;96780.50;;;10.58;71.85
53440;BME280;39333;47.044;15.080;2022-10-31T00:13:13;96773.47;;;10.64;71.02
53440;BME280;39333;47.044;15.080;2022-10-31T00:15:40;96776.72;;;10.66;71.36
53440;BME280;39333;47.044;15.080;2022-10-31T00:18:08;96779.72;;;10.69;71.31
53440;BME280;39333;47.044;15.080;2022-10-31T00:20:35;96775.31;;;10.75;70.80
53440;BME280;39333;47.044;15.080;2022-10-31T00:23:03;96777.53;;;10.78;70.82
53440;BME280;39333;47.044;15.080;2022-10-31T00:25:34;96770.38;;;10.78;70.19
53440;BME280;39333;47.044;15.080;2022-10-31T00:28:03;96773.03;;;10.78;70.19
53440;BME280;39333;47.044;15.080;2022-10-31T00:30:30;96777.59;;;10.60;70.82
53440;BME280;39333;47.044;15.080;2022-10-31T00:32:57;96762.28;;;10.50;70.51
53440;BME280;39333;47.044;15.080;2022-10-31T00:35:24;96761.00;;;10.52;71.28
53440;BME280;39333;47.044;15.080;2022-10-31T00:37:52;96766.78;;;10.49;71.00
53440;BME280;39333;47.044;15.080;2022-10-31T00:40:18;96758.59;;;10.51;71.02
53440;BME280;39333;47.044;15.080;2022-10-31T00:42:45;96764.53;;;10.35;70.74
53440;BME280;39333;47.044;15.080;2022-10-31T00:45:12;96760.28;;;10.34;71.47
53440;BME280;39333;47.044;15.080;2022-10-31T00:47:39;96761.09;;;10.34;70.86
53440;BME280;39333;47.044;15.080;2022-10-31T00:50:06;96755.88;;;10.28;71.04
53440;BME280;39333;47.044;15.080;2022-10-31T00:52:33;96763.25;;;10.26;71.44
53440;BME280;39333;47.044;15.080;2022-10-31T00:55:01;96755.19;;;10.21;71.73
53440;BME280;39333;47.044;15.080;2022-10-31T00:57:27;96756.72;;;10.10;71.94
53440;BME280;39333;47.044;15.080;2022-10-31T00:59:54;96758.78;;;10.08;72.32
53440;BME280;39333;47.044;15.080;2022-10-31T01:02:21;96746.88;;;9.99;72.89
53440;BME280;39333;47.044;15.080;2022-10-31T01:04:48;96756.94;;;10.08;72.47
53440;BME280;39333;47.044;15.080;2022-10-31T01:07:14;96745.22;;;10.16;72.12
53440;BME280;39333;47.044;15.080;2022-10-31T01:09:44;96749.19;;;10.25;72.20
53440;BME280;39333;47.044;15.080;2022-10-31T01:12:11;96747.50;;;10.12;71.74
53440;BME280;39333;47.044;15.080;2022-10-31T01:14:42;96738.31;;;9.85;72.57
53440;BME280;39333;47.044;15.080;2022-10-31T01:17:09;96736.97;;;9.94;72.83
53440;BME280;39333;47.044;15.080;2022-10-31T01:19:36;96742.84;;;9.96;71.75
53440;BME280;39333;47.044;15.080;2022-10-31T01:22:03;96737.56;;;10.08;72.13
53440;BME280;39333;47.044;15.080;2022-10-31T01:24:29;96737.34;;;10.09;71.75
53440;BME280;39333;47.044;15.080;2022-10-31T01:26:56;96740.16;;;10.14;71.40
53440;BME280;39333;47.044;15.080;2022-10-31T01:29:22;96736.78;;;10.07;71.50
53440;BME280;39333;47.044;15.080;2022-10-31T01:31:49;96734.59;;;10.04;72.04
53440;BME280;39333;47.044;15.080;2022-10-31T01:34:16;96721.22;;;9.99;71.58
53440;BME280;39333;47.044;15.080;2022-10-31T01:36:45;96734.06;;;9.84;71.85
53440;BME280;39333;47.044;15.080;2022-10-31T01:39:15;96731.06;;;9.62;72.33
53440;BME280;39333;47.044;15.080;2022-10-31T01:41:44;96725.88;;;9.56;73.09
53440;BME280;39333;47.044;15.080;2022-10-31T01:47:03;96725.78;;;9.62;73.69
53440;BME280;39333;47.044;15.080;2022-10-31T01:49:40;96726.28;;;9.71;72.93
53440;BME280;39333;47.044;15.080;2022-10-31T01:54:38;96728.19;;;9.64;72.99
53440;BME280;39333;47.044;15.080;2022-10-31T01:57:08;96728.16;;;9.52;73.17
53440;BME280;39333;47.044;15.080;2022-10-31T01:59:42;96716.41;;;9.30;74.18
53440;BME280;39333;47.044;15.080;2022-10-31T02:02:11;96718.81;;;9.31;74.47
53440;BME280;39333;47.044;15.080;2022-10-31T02:04:39;96710.00;;;9.37;73.50
53440;BME280;39333;47.044;15.080;2022-10-31T02:07:32;96703.47;;;9.40;73.33
53440;BME280;39333;47.044;15.080;2022-10-31T02:10:02;96706.72;;;9.24;73.89
53440;BME280;39333;47.044;15.080;2022-10-31T02:12:31;96700.09;;;9.33;73.97
53440;BME280;39333;47.044;15.080;2022-10-31T02:14:59;96698.44;;;9.50;73.60
53440;BME280;39333;47.044;15.080;2022-10-31T02:17:26;96699.56;;;9.42;73.54
53440;BME280;39333;47.044;15.080;2022-10-31T02:20:27;96699.25;;;9.51;73.52
53440;BME280;39333;47.044;15.080;2022-10-31T02:28:58;96694.34;;;9.54;73.36
53440;BME280;39333;47.044;15.080;2022-10-31T02:32:00;96699.91;;;9.46;72.71
53440;BME280;39333;47.044;15.080;2022-10-31T02:34:53;96693.69;;;9.40;72.37
53440;BME280;39333;47.044;15.080;2022-10-31T02:37:25;96690.13;;;9.46;72.41
53440;BME280;39333;47.044;15.080;2022-10-31T02:42:59;96691.38;;;9.44;72.24
53440;BME280;39333;47.044;15.080;2022-10-31T02:45:49;96689.06;;;9.36;72.74
53440;BME280;39333;47.044;15.080;2022-10-31T02:48:20;96689.13;;;9.29;72.17
53440;BME280;39333;47.044;15.080;2022-10-31T02:50:55;96695.59;;;9.33;72.39
53440;BME280;39333;47.044;15.080;2022-10-31T02:53:23;96691.19;;;9.27;72.23
53440;BME280;39333;47.044;15.080;2022-10-31T02:56:00;96687.16;;;9.25;72.93
53440;BME280;39333;47.044;15.080;2022-10-31T02:58:31;96689.06;;;9.36;72.88
53440;BME280;39333;47.044;15.080;2022-10-31T03:13:02;96691.88;;;9.04;73.02
53440;BME280;39333;47.044;15.080;2022-10-31T03:15:21;96690.03;;;9.05;73.16
53440;BME280;39333;47.044;15.080;2022-10-31T03:17:56;96693.72;;;9.04;73.44
53440;BME280;39333;47.044;15.080;2022-10-31T03:20:34;96692.75;;;9.17;73.38
53440;BME280;39333;47.044;15.080;2022-10-31T03:23:06;96693.94;;;9.21;72.74
53440;BME280;39333;47.044;15.080;2022-10-31T03:25:35;96697.97;;;9.23;72.79
53440;BME280;39333;47.044;15.080;2022-10-31T03:28:04;96690.03;;;9.23;72.28
53440;BME280;39333;47.044;15.080;2022-10-31T03:30:33;96702.38;;;9.11;72.31
53440;BME280;39333;47.044;15.080;2022-10-31T03:33:04;96701.88;;;9.02;72.66
53440;BME280;39333;47.044;15.080;2022-10-31T03:35:33;96701.00;;;9.08;72.91
53440;BME280;39333;47.044;15.080;2022-10-31T03:38:02;96709.59;;;9.04;72.45
53440;BME280;39333;47.044;15.080;2022-10-31T03:40:35;96704.72;;;8.83;74.12
53440;BME280;39333;47.044;15.080;2022-10-31T03:43:06;96711.34;;;8.92;73.49
53440;BME280;39333;47.044;15.080;2022-10-31T03:45:40;96712.06;;;8.99;73.43
53440;BME280;39333;47.044;15.080;2022-10-31T03:48:08;96710.28;;;9.11;72.96
53440;BME280;39333;47.044;15.080;2022-10-31T03:50:41;96702.25;;;9.06;72.93
53440;BME280;39333;47.044;15.080;2022-10-31T03:53:16;96712.38;;;8.91;73.31
53440;BME280;39333;47.044;15.080;2022-10-31T03:55:51;96709.84;;;8.77;74.43
53440;BME280;39333;47.044;15.080;2022-10-31T03:58:23;96706.06;;;8.67;74.49
53440;BME280;39333;47.044;15.080;2022-10-31T04:00:54;96710.06;;;8.76;74.82
53440;BME280;39333;47.044;15.080;2022-10-31T04:03:25;96711.81;;;8.82;74.42
53440;BME280;39333;47.044;15.080;2022-10-31T04:05:57;96711.09;;;8.93;74.12
53440;BME280;39333;47.044;15.080;2022-10-31T04:08:28;96708.63;;;8.98;73.15
53440;BME280;39333;47.044;15.080;2022-10-31T04:10:59;96708.81;;;8.97;73.74
53440;BME280;39333;47.044;15.080;2022-10-31T04:13:31;96707.81;;;8.98;72.91
53440;BME280;39333;47.044;15.080;2022-10-31T04:16:12;96713.00;;;8.86;73.65
53440;BME280;39333;47.044;15.080;2022-10-31T04:18:43;96707.09;;;8.91;73.32
53440;BME280;39333;47.044;15.080;2022-10-31T04:21:09;96715.75;;;8.98;73.42
53440;BME280;39333;47.044;15.080;2022-10-31T04:23:36;96709.41;;;8.99;73.31
53440;BME280;39333;47.044;15.080;2022-10-31T04:26:13;96706.63;;;8.94;73.49
53440;BME280;39333;47.044;15.080;2022-10-31T04:28:42;96712.16;;;8.92;72.29
53440;BME280;39333;47.044;15.080;2022-10-31T04:31:11;96705.28;;;8.66;73.88
53440;BME280;39333;47.044;15.080;2022-10-31T04:33:38;96714.38;;;8.70;73.96
53440;BME280;39333;47.044;15.080;2022-10-31T04:36:05;96711.31;;;8.73;73.91
53440;BME280;39333;47.044;15.080;2022-10-31T04:38:33;96710.88;;;8.76;73.43
53440;BME280;39333;47.044;15.080;2022-10-31T04:41:04;96715.28;;;8.83;73.10
53440;BME280;39333;47.044;15.080;2022-10-31T04:43:37;96702.34;;;8.74;74.24
53440;BME280;39333;47.044;15.080;2022-10-31T04:46:04;96718.41;;;8.55;74.61
53440;BME280;39333;47.044;15.080;2022-10-31T04:48:31;96710.91;;;8.20;75.45
53440;BME280;39333;47.044;15.080;2022-10-31T04:51:01;96709.88;;;8.21;75.95
53440;BME280;39333;47.044;15.080;2022-10-31T04:53:28;96708.38;;;8.38;74.89
53440;BME280;39333;47.044;15.080;2022-10-31T04:56:13;96712.50;;;8.53;74.45
53440;BME280;39333;47.044;15.080;2022-10-31T04:58:43;96707.22;;;8.53;73.92
53440;BME280;39333;47.044;15.080;2022-10-31T05:01:11;96706.72;;;8.44;74.24
53440;BME280;39333;47.044;15.080;2022-10-31T05:03:38;96712.50;;;8.28;75.29
53440;BME280;39333;47.044;15.080;2022-10-31T05:06:06;96717.81;;;8.21;74.90
53440;BME280;39333;47.044;15.080;2022-10-31T05:08:34;96711.22;;;8.37;74.97
53440;BME280;39333;47.044;15.080;2022-10-31T05:11:04;96717.28;;;8.44;73.93
53440;BME280;39333;47.044;15.080;2022-10-31T05:13:32;96718.06;;;8.45;73.55
53440;BME280;39333;47.044;15.080;2022-10-31T05:16:11;96718.59;;;8.53;73.66
53440;BME280;39333;47.044;15.080;2022-10-31T05:18:56;96716.88;;;8.65;73.42
53440;BME280;39333;47.044;15.080;2022-10-31T05:21:52;96717.28;;;8.44;73.47
53440;BME280;39333;47.044;15.080;2022-10-31T05:24:19;96712.25;;;8.36;73.55
53440;BME280;39333;47.044;15.080;2022-10-31T05:26:48;96711.44;;;8.35;73.83
53440;BME280;39333;47.044;15.080;2022-10-31T05:29:16;96711.66;;;8.34;73.44
53440;BME280;39333;47.044;15.080;2022-10-31T05:31:43;96712.00;;;8.44;73.66
53440;BME280;39333;47.044;15.080;2022-10-31T05:34:22;96707.56;;;8.38;74.44
53440;BME280;39333;47.044;15.080;2022-10-31T05:37:24;96712.28;;;8.54;73.50
53440;BME280;39333;47.044;15.080;2022-10-31T05:39:51;96713.56;;;8.45;73.72
53440;BME280;39333;47.044;15.080;2022-10-31T05:42:18;96711.91;;;8.26;74.08
53440;BME280;39333;47.044;15.080;2022-10-31T05:44:44;96715.13;;;7.96;75.29
53440;BME280;39333;47.044;15.080;2022-10-31T05:47:20;96709.59;;;8.04;75.07
53440;BME280;39333;47.044;15.080;2022-10-31T05:50:06;96716.41;;;8.19;74.71
53440;BME280;39333;47.044;15.080;2022-10-31T05:52:59;96723.41;;;8.38;74.29
53440;BME280;39333;47.044;15.080;2022-10-31T05:55:32;96725.34;;;8.49;73.22
53440;BME280;39333;47.044;15.080;2022-10-31T05:58:07;96720.94;;;8.43;73.44
53440;BME280;39333;47.044;15.080;2022-10-31T06:00:36;96718.34;;;8.36;73.88
53440;BME280;39333;47.044;15.080;2022-10-31T06:03:08;96722.19;;;8.40;73.14
53440;BME280;39333;47.044;15.080;2022-10-31T06:05:43;96720.28;;;8.48;73.29
53440;BME280;39333;47.044;15.080;2022-10-31T06:08:16;96729.50;;;8.38;73.71
53440;BME280;39333;47.044;15.080;2022-10-31T06:10:43;96721.63;;;8.57;73.75
53440;BME280;39333;47.044;15.080;2022-10-31T06:13:14;96720.66;;;8.51;73.44
53440;BME280;39333;47.044;15.080;2022-10-31T06:15:49;96718.81;;;8.52;74.14
53440;BME280;39333;47.044;15.080;2022-10-31T06:18:19;96730.97;;;8.59;73.30
53440;BME280;39333;47.044;15.080;2022-10-31T06:20:48;96737.63;;;8.62;73.45
53440;BME280;39333;47.044;15.080;2022-10-31T06:23:15;96735.97;;;8.43;75.00
53440;BME280;39333;47.044;15.080;2022-10-31T06:25:49;96738.94;;;8.21;75.87
53440;BME280;39333;47.044;15.080;2022-10-31T06:28:16;96726.19;;;7.80;78.90
53440;BME280;39333;47.044;15.080;2022-10-31T06:30:53;96734.56;;;8.08;78.31
53440;BME280;39333;47.044;15.080;2022-10-31T06:33:20;96735.16;;;8.42;77.16
53440;BME280;39333;47.044;15.080;2022-10-31T06:35:55;96733.44;;;8.54;77.07
53440;BME280;39333;47.044;15.080;2022-10-31T06:38:22;96737.84;;;8.29;78.93
53440;BME280;39333;47.044;15.080;2022-10-31T06:40:49;96729.28;;;8.40;77.44
53440;BME280;39333;47.044;15.080;2022-10-31T06:43:21;96735.97;;;8.67;77.35
53440;BME280;39333;47.044;15.080;2022-10-31T06:45:55;96728.94;;;8.80;76.26
53440;BME280;39333;47.044;15.080;2022-10-31T06:48:31;96730.34;;;9.00;76.19
53440;BME280;39333;47.044;15.080;2022-10-31T06:51:17;96738.53;;;9.17;75.84
53440;BME280;39333;47.044;15.080;2022-10-31T06:53:43;96733.31;;;9.29;76.83
53440;BME280;39333;47.044;15.080;2022-10-31T06:56:12;96729.72;;;9.41;77.09
53440;BME280;39333;47.044;15.080;2022-10-31T06:58:47;96731.22;;;9.67;76.23
53440;BME280;39333;47.044;15.080;2022-10-31T07:01:15;96736.38;;;9.92;75.62
53440;BME280;39333;47.044;15.080;2022-10-31T07:03:42;96737.66;;;10.20;75.54
53440;BME280;39333;47.044;15.080;2022-10-31T07:06:08;96740.13;;;10.44;74.42
53440;BME280;39333;47.044;15.080;2022-10-31T07:08:36;96745.13;;;10.76;73.07
53440;BME280;39333;47.044;15.080;2022-10-31T07:11:03;96741.53;;;11.05;72.94
53440;BME280;39333;47.044;15.080;2022-10-31T07:13:30;96736.78;;;11.31;72.53
53440;BME280;39333;47.044;15.080;2022-10-31T07:16:05;96745.63;;;11.60;72.49
53440;BME280;39333;47.044;15.080;2022-10-31T07:18:34;96749.50;;;11.80;72.02
53440;BME280;39333;47.044;15.080;2022-10-31T07:21:02;96746.00;;;11.91;71.27
53440;BME280;39333;47.044;15.080;2022-10-31T07:23:28;96746.19;;;12.02;72.31
53440;BME280;39333;47.044;15.080;2022-10-31T07:26:13;96750.69;;;12.30;72.53
53440;BME280;39333;47.044;15.080;2022-10-31T07:28:46;96757.81;;;12.57;71.49
53440;BME280;39333;47.044;15.080;2022-10-31T07:31:16;96755.28;;;12.84;70.17
53440;BME280;39333;47.044;15.080;2022-10-31T07:33:42;96755.84;;;13.03;69.37
53440;BME280;39333;47.044;15.080;2022-10-31T07:36:35;96753.25;;;13.25;68.86
53440;BME280;39333;47.044;15.080;2022-10-31T07:39:03;96764.75;;;13.47;69.06
53440;BME280;39333;47.044;15.080;2022-10-31T07:41:32;96759.75;;;13.73;68.31
53440;BME280;39333;47.044;15.080;2022-10-31T07:43:59;96756.75;;;13.91;67.47
53440;BME280;39333;47.044;15.080;2022-10-31T07:46:29;96758.63;;;14.17;66.95
53440;BME280;39333;47.044;15.080;2022-10-31T07:49:24;96755.72;;;14.46;66.03
53440;BME280;39333;47.044;15.080;2022-10-31T07:52:10;96756.97;;;14.65;65.19
53440;BME280;39333;47.044;15.080;2022-10-31T07:55:04;96754.97;;;14.82;64.83
53440;BME280;39333;47.044;15.080;2022-10-31T07:57:31;96757.44;;;14.89;66.17
53440;BME280;39333;47.044;15.080;2022-10-31T08:00:00;96752.72;;;15.01;66.12
53440;BME280;39333;47.044;15.080;2022-10-31T08:02:28;96758.19;;;15.21;66.38
53440;BME280;39333;47.044;15.080;2022-10-31T08:05:21;96764.69;;;15.35;64.42
53440;BME280;39333;47.044;15.080;2022-10-31T08:08:06;96758.06;;;15.48;62.00
53440;BME280;39333;47.044;15.080;2022-10-31T08:10:35;96760.03;;;15.63;61.74
53440;BME280;39333;47.044;15.080;2022-10-31T08:13:07;96758.19;;;15.63;61.10
53440;BME280;39333;47.044;15.080;2022-10-31T08:15:37;96758.22;;;15.79;61.38
53440;BME280;39333;47.044;15.080;2022-10-31T08:18:12;96765.84;;;16.07;60.82
53440;BME280;39333;47.044;15.080;2022-10-31T08:20:40;96758.66;;;16.33;59.11
53440;BME280;39333;47.044;15.080;2022-10-31T08:23:08;96768.38;;;16.64;59.07
53440;BME280;39333;47.044;15.080;2022-10-31T08:25:36;96768.94;;;16.87;59.14
53440;BME280;39333;47.044;15.080;2022-10-31T08:28:05;96767.56;;;16.89;58.67
53440;BME280;39333;47.044;15.080;2022-10-31T08:30:34;96761.69;;;16.82;57.06
53440;BME280;39333;47.044;15.080;2022-10-31T08:33:21;96765.69;;;17.20;59.72
53440;BME280;39333;47.044;15.080;2022-10-31T08:36:06;96765.59;;;17.56;57.12
53440;BME280;39333;47.044;15.080;2022-10-31T08:39:02;96765.00;;;17.84;55.24
53440;BME280;39333;47.044;15.080;2022-10-31T08:41:30;96766.75;;;18.09;56.31
53440;BME280;39333;47.044;15.080;2022-10-31T08:43:58;96755.63;;;18.31;54.47
53440;BME280;39333;47.044;15.080;2022-10-31T08:46:25;96764.50;;;18.31;55.86
53440;BME280;39333;47.044;15.080;2022-10-31T08:48:52;96756.63;;;18.40;52.90
53440;BME280;39333;47.044;15.080;2022-10-31T08:51:22;96761.97;;;18.50;52.87
53440;BME280;39333;47.044;15.080;2022-10-31T08:53:52;96766.34;;;18.80;52.97
53440;BME280;39333;47.044;15.080;2022-10-31T08:56:37;96763.84;;;19.17;51.52
53440;BME280;39333;47.044;15.080;2022-10-31T08:59:20;96765.97;;;19.20;50.69
53440;BME280;39333;47.044;15.080;2022-10-31T09:02:13;96763.91;;;19.41;50.08
53440;BME280;39333;47.044;15.080;2022-10-31T09:04:40;96757.63;;;19.51;49.14
53440;BME280;39333;47.044;15.080;2022-10-31T09:07:07;96762.16;;;19.55;48.40
53440;BME280;39333;47.044;15.080;2022-10-31T09:09:46;96764.66;;;19.47;47.59
53440;BME280;39333;47.044;15.080;2022-10-31T09:12:13;96766.41;;;19.62;47.14
53440;BME280;39333;47.044;15.080;2022-10-31T09:14:52;96770.25;;;19.79;48.04
53440;BME280;39333;47.044;15.080;2022-10-31T09:17:39;96755.56;;;19.90;48.20
53440;BME280;39333;47.044;15.080;2022-10-31T09:20:30;96765.88;;;20.26;48.64
53440;BME280;39333;47.044;15.080;2022-10-31T09:23:05;96764.19;;;20.30;47.90
53440;BME280;39333;47.044;15.080;2022-10-31T09:25:36;96761.88;;;20.23;47.07
53440;BME280;39333;47.044;15.080;2022-10-31T09:28:31;96756.72;;;20.27;47.46
53440;BME280;39333;47.044;15.080;2022-10-31T09:31:10;96758.53;;;20.50;47.30
53440;BME280;39333;47.044;15.080;2022-10-31T09:34:00;96762.38;;;20.82;45.99
53440;BME280;39333;47.044;15.080;2022-10-31T09:36:37;96756.88;;;20.73;46.37
53440;BME280;39333;47.044;15.080;2022-10-31T09:39:11;96762.25;;;20.73;47.22
53440;BME280;39333;47.044;15.080;2022-10-31T09:53:32;96758.91;;;21.87;46.55
53440;BME280;39333;47.044;15.080;2022-10-31T09:56:02;96762.69;;;21.86;46.23
53440;BME280;39333;47.044;15.080;2022-10-31T09:58:35;96766.06;;;21.78;44.51
53440;BME280;39333;47.044;15.080;2022-10-31T10:01:06;96761.69;;;22.10;46.81
53440;BME280;39333;47.044;15.080;2022-10-31T10:03:43;96759.78;;;22.24;46.41
53440;BME280;39333;47.044;15.080;2022-10-31T10:06:34;96764.91;;;22.48;44.06
53440;BME280;39333;47.044;15.080;2022-10-31T10:09:24;96755.56;;;22.67;44.30
53440;BME280;39333;47.044;15.080;2022-10-31T10:12:19;96757.13;;;23.05;48.54
53440;BME280;39333;47.044;15.080;2022-10-31T10:15:34;96747.53;;;23.21;42.64
53440;BME280;39333;47.044;15.080;2022-10-31T10:17:59;96748.84;;;23.32;45.48
53440;BME280;39333;47.044;15.080;2022-10-31T10:26:16;96746.75;;;23.51;42.32
53440;BME280;39333;47.044;15.080;2022-10-31T10:28:51;96740.75;;;23.10;43.62
53440;BME280;39333;47.044;15.080;2022-10-31T10:31:27;96737.53;;;22.63;42.80
53440;BME280;39333;47.044;15.080;2022-10-31T10:34:11;96742.50;;;22.83;45.81
53440;BME280;39333;47.044;15.080;2022-10-31T10:36:43;96743.03;;;22.94;43.97
53440;BME280;39333;47.044;15.080;2022-10-31T10:39:21;96739.00;;;22.83;45.03
53440;BME280;39333;47.044;15.080;2022-10-31T10:41:50;96745.38;;;23.09;47.74
53440;BME280;39333;47.044;15.080;2022-10-31T10:44:44;96729.59;;;22.80;44.61
53440;BME280;39333;47.044;15.080;2022-10-31T10:47:56;96729.19;;;22.87;43.98
53440;BME280;39333;47.044;15.080;2022-10-31T10:50:33;96730.41;;;22.81;43.55
53440;BME280;39333;47.044;15.080;2022-10-31T10:58:26;96727.66;;;23.56;42.09
53440;BME280;39333;47.044;15.080;2022-10-31T11:00:54;96727.03;;;23.06;42.36
53440;BME280;39333;47.044;15.080;2022-10-31T11:03:21;96722.50;;;23.15;45.87
53440;BME280;39333;47.044;15.080;2022-10-31T11:05:55;96721.56;;;23.51;44.61
53440;BME280;39333;47.044;15.080;2022-10-31T11:08:33;96722.78;;;23.67;46.77
53440;BME280;39333;47.044;15.080;2022-10-31T11:11:13;96709.56;;;23.74;41.35
53440;BME280;39333;47.044;15.080;2022-10-31T11:13:48;96713.81;;;23.27;42.38
53440;BME280;39333;47.044;15.080;2022-10-31T11:18:54;96710.50;;;23.38;44.25
53440;BME280;39333;47.044;15.080;2022-10-31T11:21:31;96708.22;;;23.54;43.06
53440;BME280;39333;47.044;15.080;2022-10-31T11:24:12;96710.97;;;23.71;43.95
53440;BME280;39333;47.044;15.080;2022-10-31T11:26:42;96702.66;;;23.59;42.09
53440;BME280;39333;47.044;15.080;2022-10-31T11:29:27;96694.25;;;23.30;43.61
53440;BME280;39333;47.044;15.080;2022-10-31T11:31:56;96695.97;;;23.26;42.58
53440;BME280;39333;47.044;15.080;2022-10-31T11:36:53;96695.50;;;24.29;50.84
53440;BME280;39333;47.044;15.080;2022-10-31T11:39:25;96686.56;;;24.37;41.67
53440;BME280;39333;47.044;15.080;2022-10-31T11:41:52;96696.63;;;23.54;42.13
53440;BME280;39333;47.044;15.080;2022-10-31T11:44:26;96688.56;;;23.40;43.50
53440;BME280;39333;47.044;15.080;2022-10-31T11:46:56;96683.31;;;23.83;41.83
53440;BME280;39333;47.044;15.080;2022-10-31T11:49:38;96691.31;;;24.23;42.81
53440;BME280;39333;47.044;15.080;2022-10-31T11:52:21;96674.94;;;24.36;42.84
53440;BME280;39333;47.044;15.080;2022-10-31T11:54:51;96673.81;;;24.63;50.33
53440;BME280;39333;47.044;15.080;2022-10-31T11:57:26;96675.41;;;24.64;48.83
53440;BME280;39333;47.044;15.080;2022-10-31T11:59:58;96680.16;;;25.02;47.90
53440;BME280;39333;47.044;15.080;2022-10-31T12:02:26;96683.88;;;25.35;47.43
53440;BME280;39333;47.044;15.080;2022-10-31T12:05:07;96671.88;;;24.72;41.49
53440;BME280;39333;47.044;15.080;2022-10-31T12:07:37;96669.78;;;24.87;43.72
53440;BME280;39333;47.044;15.080;2022-10-31T12:10:11;96675.78;;;25.18;49.47
53440;BME280;39333;47.044;15.080;2022-10-31T12:12:41;96676.41;;;25.32;42.37
53440;BME280;39333;47.044;15.080;2022-10-31T12:15:27;96674.28;;;24.83;48.75
53440;BME280;39333;47.044;15.080;2022-10-31T12:18:17;96663.88;;;23.81;44.59
53440;BME280;39333;47.044;15.080;2022-10-31T12:34:39;96660.25;;;23.37;46.66
53440;BME280;39333;47.044;15.080;2022-10-31T12:47:59;96646.34;;;23.70;44.63
53440;BME280;39333;47.044;15.080;2022-10-31T12:59:09;96646.63;;;23.60;46.92
53440;BME280;39333;47.044;15.080;2022-10-31T13:02:11;96649.19;;;23.25;47.52
53440;BME280;39333;47.044;15.080;2022-10-31T13:05:05;96647.75;;;23.19;48.41
53440;BME280;39333;47.044;15.080;2022-10-31T13:07:41;96640.81;;;23.35;48.30
53440;BME280;39333;47.044;15.080;2022-10-31T13:10:34;96638.09;;;23.35;51.21
53440;BME280;39333;47.044;15.080;2022-10-31T13:13:10;96634.03;;;23.55;50.18
53440;BME280;39333;47.044;15.080;2022-10-31T13:15:51;96634.63;;;23.44;48.52
53440;BME280;39333;47.044;15.080;2022-10-31T13:18:42;96639.41;;;23.47;49.23
53440;BME280;39333;47.044;15.080;2022-10-31T13:21:17;96638.03;;;23.58;46.63
53440;BME280;39333;47.044;15.080;2022-10-31T13:23:48;96635.00;;;23.59;47.01
53440;BME280;39333;47.044;15.080;2022-10-31T13:26:42;96633.69;;;23.48;51.35
53440;BME280;39333;47.044;15.080;2022-10-31T13:29:43;96635.88;;;23.37;48.04
53440;BME280;39333;47.044;15.080;2022-10-31T13:32:12;96633.94;;;23.38;47.95
53440;BME280;39333;47.044;15.080;2022-10-31T13:34:42;96626.59;;;23.21;47.92
53440;BME280;39333;47.044;15.080;2022-10-31T13:45:21;96627.53;;;23.65;50.67
53440;BME280;39333;47.044;15.080;2022-10-31T13:50:28;96626.75;;;23.64;49.98
53440;BME280;39333;47.044;15.080;2022-10-31T13:53:34;96630.41;;;23.77;48.43
53440;BME280;39333;47.044;15.080;2022-10-31T13:56:14;96636.63;;;23.78;48.13
53440;BME280;39333;47.044;15.080;2022-10-31T14:01:31;96628.84;;;23.93;49.77
53440;BME280;39333;47.044;15.080;2022-10-31T14:04:05;96629.59;;;23.59;50.35
53440;BME280;39333;47.044;15.080;2022-10-31T14:09:38;96630.78;;;24.01;49.41
53440;BME280;39333;47.044;15.080;2022-10-31T14:12:29;96626.28;;;23.80;50.95
53440;BME280;39333;47.044;15.080;2022-10-31T14:17:53;96633.63;;;23.96;49.80
53440;BME280;39333;47.044;15.080;2022-10-31T14:20:34;96639.47;;;23.72;49.00
53440;BME280;39333;47.044;15.080;2022-10-31T14:28:46;96633.50;;;24.19;48.40
53440;BME280;39333;47.044;15.080;2022-10-31T14:31:44;96630.63;;;23.98;51.20
53440;BME280;39333;47.044;15.080;2022-10-31T14:42:24;96629.50;;;24.07;54.01
53440;BME280;39333;47.044;15.080;2022-10-31T14:45:15;96635.72;;;24.08;52.73
53440;BME280;39333;47.044;15.080;2022-10-31T14:48:03;96626.97;;;24.02;53.45
53440;BME280;39333;47.044;15.080;2022-10-31T14:50:58;96623.59;;;23.97;53.12
53440;BME280;39333;47.044;15.080;2022-10-31T14:53:30;96632.81;;;23.87;52.94
53440;BME280;39333;47.044;15.080;2022-10-31T14:55:59;96628.03;;;23.76;53.27
53440;BME280;39333;47.044;15.080;2022-10-31T15:00:59;96634.13;;;23.33;53.86
53440;BME280;39333;47.044;15.080;2022-10-31T15:03:35;96625.47;;;23.22;54.37
53440;BME280;39333;47.044;15.080;2022-10-31T15:06:11;96634.16;;;23.02;54.41
53440;BME280;39333;47.044;15.080;2022-10-31T15:08:43;96629.28;;;22.82;54.26
53440;BME280;39333;47.044;15.080;2022-10-31T15:11:15;96633.31;;;22.48;55.84
53440;BME280;39333;47.044;15.080;2022-10-31T15:14:05;96630.25;;;22.19;56.80
53440;BME280;39333;47.044;15.080;2022-10-31T15:16:43;96625.06;;;22.09;56.22
53440;BME280;39333;47.044;15.080;2022-10-31T15:19:13;96632.88;;;21.96;55.81
53440;BME280;39333;47.044;15.080;2022-10-31T15:21:44;96635.31;;;21.84;55.90
53440;BME280;39333;47.044;15.080;2022-10-31T15:24:14;96639.97;;;21.70;56.25
53440;BME280;39333;47.044;15.080;2022-10-31T15:26:49;96641.75;;;21.61;55.83
53440;BME280;39333;47.044;15.080;2022-10-31T15:29:22;96637.69;;;21.36;56.19
53440;BME280;39333;47.044;15.080;2022-10-31T15:34:37;96638.34;;;21.01;57.46
53440;BME280;39333;47.044;15.080;2022-10-31T15:37:10;96642.72;;;20.83;56.71